Time;durP1;ratioP1;P1;durP2;ratioP2;P2;SDS_P1;SDS_P2;PMS_P1;PMS_P2;Temp;Humidity;BMP_temperature;BMP_pressure;BME280_temperature;BME280_humidity;BME280_pressure;Samples;Min_cycle;Max_cycle;Signal;HPM_P1;HPM_P2
2023/07/01 04:02:00;;;;;;;4.53;2.93;;;16.20;97.30;;;;;;5360661;23;20497;-89
2023/07/01 04:04:26;;;;;;;5.90;3.50;;;16.20;97.30;;;;;;4977956;28;20858;-87
2023/07/01 04:06:59;;;;;;;6.70;3.60;;;16.20;97.30;;;;;;4993686;28;20433;-92
2023/07/01 04:09:29;;;;;;;4.30;3.60;;;16.20;97.30;;;;;;5004856;28;20188;-90
2023/07/01 04:11:57;;;;;;;3.70;3.50;;;16.20;97.30;;;;;;4989792;28;20465;-92
2023/07/01 04:14:26;;;;;;;5.60;3.20;;;16.20;97.30;;;;;;4959672;28;20419;-91
2023/07/01 04:16:57;;;;;;;4.70;3.00;;;16.10;97.30;;;;;;4973831;28;20435;-89
2023/07/01 04:19:25;;;;;;;6.20;4.00;;;16.10;97.30;;;;;;4961415;28;20419;-89
2023/07/01 04:21:59;;;;;;;4.27;3.40;;;16.10;97.30;;;;;;4957748;28;20965;-88
2023/07/01 04:24:27;;;;;;;2.47;2.10;;;16.10;97.30;;;;;;4960784;28;20429;-91
2023/07/01 04:26:56;;;;;;;8.70;5.60;;;16.10;97.30;;;;;;4959975;28;20523;-89
2023/07/01 04:32:47;;;;;;;5.83;4.17;;;16.00;97.30;;;;;;4953191;28;21037;-89
2023/07/01 04:35:16;;;;;;;2.97;2.53;;;16.00;97.30;;;;;;4961614;28;20454;-86
2023/07/01 04:37:49;;;;;;;2.70;2.50;;;16.00;97.30;;;;;;4966027;28;20187;-90
2023/07/01 04:40:18;;;;;;;4.07;3.17;;;16.00;97.30;;;;;;4964116;28;20509;-89
2023/07/01 04:42:56;;;;;;;1.73;1.50;;;16.00;97.30;;;;;;4961180;28;20429;-86
2023/07/01 04:45:26;;;;;;;22.33;3.63;;;16.00;97.30;;;;;;4964519;28;20912;-89
2023/07/01 04:47:56;;;;;;;8.03;3.83;;;16.00;97.30;;;;;;4962290;28;20427;-89
2023/07/01 04:50:30;;;;;;;9.67;3.63;;;16.10;97.30;;;;;;4966264;28;20425;-90
2023/07/01 04:52:58;;;;;;;5.40;2.90;;;16.10;97.30;;;;;;4966308;28;20430;-89
2023/07/01 04:55:23;;;;;;;4.33;2.80;;;16.10;97.30;;;;;;4955024;28;20423;-89
2023/07/01 04:57:49;;;;;;;3.60;2.97;;;16.10;97.30;;;;;;4954231;28;20795;-89
2023/07/01 05:00:17;;;;;;;5.70;3.73;;;16.10;97.30;;;;;;4956142;28;20681;-86
2023/07/01 05:02:43;;;;;;;4.23;2.97;;;16.10;97.30;;;;;;4955068;28;20487;-87
2023/07/01 05:05:09;;;;;;;3.93;2.40;;;16.20;97.30;;;;;;4963067;28;20473;-86
2023/07/01 05:07:37;;;;;;;9.23;3.20;;;16.20;97.30;;;;;;4954320;29;20194;-89
2023/07/01 05:10:06;;;;;;;6.10;3.83;;;16.30;97.30;;;;;;4963305;28;20185;-89
2023/07/01 05:12:39;;;;;;;3.60;2.20;;;16.30;97.30;;;;;;4959541;28;20496;-89
2023/07/01 05:15:08;;;;;;;4.10;2.83;;;16.30;97.30;;;;;;4966617;28;20449;-89
2023/07/01 05:17:37;;;;;;;3.43;3.10;;;16.30;97.30;;;;;;4967770;28;20418;-87
2023/07/01 05:20:08;;;;;;;8.90;4.40;;;16.40;97.30;;;;;;4959359;28;20426;-91
2023/07/01 05:22:37;;;;;;;4.77;3.37;;;16.40;97.30;;;;;;4971390;28;20509;-91
2023/07/01 05:25:08;;;;;;;3.10;2.90;;;16.50;97.30;;;;;;4965381;28;20442;-91
2023/07/01 05:27:37;;;;;;;4.27;2.63;;;16.50;97.30;;;;;;4954822;28;20435;-88
2023/07/01 05:30:06;;;;;;;9.17;2.33;;;16.60;97.30;;;;;;4956708;28;20482;-91
2023/07/01 05:32:39;;;;;;;5.23;3.80;;;16.60;97.30;;;;;;4953658;28;20470;-89
2023/07/01 05:35:09;;;;;;;3.40;2.90;;;16.70;97.30;;;;;;4956763;28;20450;-90
2023/07/01 05:37:37;;;;;;;3.17;2.13;;;16.70;97.30;;;;;;4963062;28;20525;-88
2023/07/01 05:40:06;;;;;;;5.00;3.90;;;16.80;97.30;;;;;;4955513;28;20419;-89
2023/07/01 05:42:38;;;;;;;3.23;3.03;;;16.80;97.30;;;;;;4965734;28;20476;-90
2023/07/01 05:45:07;;;;;;;2.07;1.93;;;16.80;97.30;;;;;;4954666;28;20435;-90
2023/07/01 05:47:57;;;;;;;2.80;2.43;;;16.80;97.30;;;;;;4953732;28;20439;-89
2023/07/01 05:50:26;;;;;;;4.20;2.23;;;16.80;97.30;;;;;;4972907;28;20436;-89
2023/07/01 05:52:55;;;;;;;5.67;3.57;;;16.90;97.30;;;;;;4966153;28;20537;-89
2023/07/01 05:55:29;;;;;;;1.97;1.77;;;16.90;97.30;;;;;;4970875;28;20534;-89
2023/07/01 05:57:57;;;;;;;3.53;2.30;;;16.90;97.30;;;;;;4953287;28;20458;-90
2023/07/01 06:00:38;;;;;;;2.53;2.33;;;17.00;97.30;;;;;;4964001;28;20422;-89
2023/07/01 06:03:08;;;;;;;3.07;2.83;;;17.00;97.30;;;;;;4965207;28;20520;-89
2023/07/01 06:05:38;;;;;;;2.30;2.17;;;17.10;97.30;;;;;;4961054;28;20944;-88
2023/07/01 06:08:19;;;;;;;2.17;1.90;;;17.20;97.30;;;;;;4954386;29;20430;-89
2023/07/01 06:11:29;;;;;;;4.07;2.43;;;17.20;97.30;;;;;;4959408;28;20449;-92
2023/07/01 06:14:19;;;;;;;2.50;2.30;;;17.30;97.30;;;;;;4956048;28;20537;-90
2023/07/01 06:16:59;;;;;;;5.90;2.40;;;17.40;97.30;;;;;;4979953;28;20420;-90
2023/07/01 06:19:59;;;;;;;2.23;1.90;;;17.40;97.30;;;;;;4973771;28;20990;-90
2023/07/01 06:22:40;;;;;;;3.77;1.83;;;17.50;97.30;;;;;;4962332;28;20455;-90
2023/07/01 06:25:59;;;;;;;9.93;2.50;;;17.60;97.30;;;;;;4953629;28;20426;-91
2023/07/01 06:29:00;;;;;;;2.17;1.83;;;17.70;97.30;;;;;;4960886;28;20427;-89
2023/07/01 06:31:29;;;;;;;4.67;1.87;;;17.70;97.30;;;;;;4971371;28;20570;-90
2023/07/01 06:41:09;;;;;;;2.33;1.97;;;18.00;97.30;;;;;;4954381;28;20447;-91
2023/07/01 06:43:49;;;;;;;3.03;2.33;;;18.10;97.30;;;;;;4965995;28;20450;-90
2023/07/01 06:46:19;;;;;;;1.30;1.30;;;18.20;97.30;;;;;;4953082;28;20510;-90
2023/07/01 06:48:48;;;;;;;4.80;2.77;;;18.30;97.30;;;;;;4957112;28;20435;-93
2023/07/01 07:00:49;;;;;;;1.60;1.53;;;18.60;97.30;;;;;;4960081;23;20595;-67
2023/07/01 07:03:15;;;;;;;2.40;1.30;;;18.70;96.30;;;;;;4965475;28;20972;-67
2023/07/01 07:05:40;;;;;;;14.03;2.43;;;18.80;95.90;;;;;;4968318;28;20214;-67
2023/07/01 07:08:05;;;;;;;1.40;1.30;;;18.80;95.10;;;;;;4965549;28;20298;-67
2023/07/01 07:10:31;;;;;;;1.07;0.97;;;18.90;94.60;;;;;;4959401;28;20298;-67
2023/07/01 07:12:56;;;;;;;2.37;1.67;;;19.00;93.10;;;;;;4946343;28;20171;-67
2023/07/01 07:15:22;;;;;;;1.50;1.40;;;19.10;94.00;;;;;;4946775;29;20299;-68
2023/07/01 07:17:47;;;;;;;2.40;1.60;;;19.20;94.10;;;;;;4947032;29;20176;-66
2023/07/01 07:20:14;;;;;;;1.60;1.50;;;19.30;92.10;;;;;;4945119;28;20186;-67
2023/07/01 07:22:39;;;;;;;2.40;1.73;;;19.40;92.10;;;;;;4941818;29;20199;-67
2023/07/01 07:25:05;;;;;;;2.50;1.37;;;19.40;91.80;;;;;;4941454;29;20432;-66
2023/07/01 07:27:30;;;;;;;1.80;1.70;;;19.60;91.90;;;;;;4946666;28;20595;-69
2023/07/01 07:29:56;;;;;;;5.23;1.67;;;19.60;91.30;;;;;;4946276;28;20179;-67
2023/07/01 07:32:21;;;;;;;1.10;1.00;;;19.70;90.90;;;;;;4945739;28;20587;-68
2023/07/01 07:34:47;;;;;;;1.13;1.03;;;19.80;91.10;;;;;;4947665;28;20183;-67
2023/07/01 07:37:12;;;;;;;2.10;1.90;;;19.90;90.50;;;;;;4946608;28;20671;-68
2023/07/01 07:39:38;;;;;;;2.40;1.33;;;19.90;90.60;;;;;;4951314;28;20674;-66
2023/07/01 07:42:04;;;;;;;2.60;1.67;;;20.00;91.00;;;;;;4951221;28;20195;-67
2023/07/01 07:44:29;;;;;;;1.40;1.30;;;20.10;91.70;;;;;;4951404;28;20560;-68
2023/07/01 07:46:56;;;;;;;1.40;1.30;;;20.20;91.90;;;;;;4952991;28;20202;-67
2023/07/01 07:49:22;;;;;;;1.70;1.60;;;20.30;92.40;;;;;;4952711;28;20423;-67
2023/07/01 07:51:47;;;;;;;2.67;2.10;;;20.40;92.00;;;;;;4950634;28;20233;-68
2023/07/01 07:54:13;;;;;;;1.43;1.33;;;20.50;91.00;;;;;;4949837;28;20234;-67
2023/07/01 07:56:38;;;;;;;1.40;1.30;;;20.50;90.70;;;;;;4950731;29;20277;-67
2023/07/01 07:59:05;;;;;;;2.53;2.20;;;20.60;91.60;;;;;;4950906;28;20190;-68
2023/07/01 08:01:30;;;;;;;3.80;2.07;;;20.70;92.00;;;;;;4948914;28;20230;-67
2023/07/01 08:03:56;;;;;;;1.93;1.50;;;20.80;91.70;;;;;;4950947;29;20433;-68
2023/07/01 08:06:21;;;;;;;1.63;1.57;;;20.90;91.20;;;;;;4952178;28;20527;-67
2023/07/01 08:08:47;;;;;;;2.37;2.00;;;20.90;91.60;;;;;;4950935;28;20262;-71
2023/07/01 08:11:12;;;;;;;7.60;1.83;;;21.00;92.20;;;;;;4947350;28;20302;-68
2023/07/01 08:13:38;;;;;;;1.73;1.63;;;21.10;91.50;;;;;;4945838;28;20183;-68
2023/07/01 08:16:04;;;;;;;1.87;1.77;;;21.10;91.80;;;;;;4949903;28;20190;-68
2023/07/01 08:18:30;;;;;;;2.20;2.03;;;21.20;92.20;;;;;;4952029;28;20230;-67
2023/07/01 08:20:56;;;;;;;1.60;1.50;;;21.20;91.40;;;;;;4950597;28;20461;-67
2023/07/01 08:23:22;;;;;;;2.03;1.50;;;21.30;91.50;;;;;;4952369;28;20427;-66
2023/07/01 08:25:47;;;;;;;1.80;1.70;;;21.30;90.40;;;;;;4953107;28;20206;-66
2023/07/01 08:28:13;;;;;;;8.73;1.87;;;21.40;87.40;;;;;;4951698;28;20386;-66
2023/07/01 08:30:39;;;;;;;1.43;1.33;;;21.40;88.90;;;;;;4943490;29;20537;-67
2023/07/01 08:33:04;;;;;;;2.20;1.43;;;21.50;89.70;;;;;;4946670;29;20660;-68
2023/07/01 08:35:30;;;;;;;1.27;1.17;;;21.60;88.60;;;;;;4948575;28;20206;-68
2023/07/01 08:37:56;;;;;;;3.33;1.60;;;21.70;89.10;;;;;;4942878;29;20226;-67
2023/07/01 08:40:23;;;;;;;1.20;1.10;;;21.80;86.50;;;;;;4947600;28;20568;-67
2023/07/01 08:43:02;;;;;;;2.23;1.30;;;21.80;86.50;;;;;;4947317;28;20527;-68
2023/07/01 08:45:30;;;;;;;2.70;2.00;;;22.00;86.20;;;;;;4941714;28;20478;-68
2023/07/01 08:47:58;;;;;;;1.20;1.10;;;22.00;86.30;;;;;;4947240;29;20815;-67
2023/07/01 08:50:30;;;;;;;2.63;1.43;;;22.10;84.90;;;;;;4944111;28;20447;-68
2023/07/01 08:53:05;;;;;;;2.57;1.60;;;22.20;85.10;;;;;;4946575;28;20454;-69
2023/07/01 08:55:31;;;;;;;4.80;1.40;;;22.30;85.70;;;;;;4946894;29;20516;-71
2023/07/01 08:57:57;;;;;;;1.00;0.90;;;22.30;85.10;;;;;;4946652;29;20427;-72
2023/07/01 09:00:23;;;;;;;1.23;1.10;;;22.40;84.80;;;;;;4949066;28;20422;-66
2023/07/01 09:02:48;;;;;;;3.50;1.67;;;22.50;84.30;;;;;;4950758;28;20274;-67
2023/07/01 09:05:14;;;;;;;2.70;1.57;;;22.50;83.60;;;;;;4950212;28;20405;-67
2023/07/01 09:07:42;;;;;;;3.23;1.77;;;22.60;83.40;;;;;;4949227;29;20182;-68
2023/07/01 09:10:11;;;;;;;1.23;1.10;;;22.70;83.90;;;;;;4948763;28;20187;-69
2023/07/01 09:12:37;;;;;;;1.90;1.67;;;22.80;84.30;;;;;;4943221;29;20501;-68
2023/07/01 09:15:04;;;;;;;1.50;1.40;;;22.90;84.10;;;;;;4950804;28;20446;-68
2023/07/01 09:17:31;;;;;;;3.87;2.17;;;23.00;83.40;;;;;;4948838;28;20180;-68
2023/07/01 09:19:59;;;;;;;2.40;1.00;;;23.20;83.50;;;;;;4943314;28;20443;-69
2023/07/01 09:22:25;;;;;;;1.20;1.10;;;23.30;82.70;;;;;;4946357;28;20669;-67
2023/07/01 09:24:50;;;;;;;1.40;1.17;;;23.40;81.50;;;;;;4941926;28;20841;-69
2023/07/01 09:27:16;;;;;;;1.47;1.40;;;23.50;81.40;;;;;;4938448;28;20570;-68
2023/07/01 09:29:42;;;;;;;1.40;1.30;;;23.50;81.90;;;;;;4946687;28;20179;-68
2023/07/01 09:32:08;;;;;;;1.47;1.43;;;23.50;81.80;;;;;;4948096;28;20199;-68
2023/07/01 09:34:55;;;;;;;1.50;1.40;;;23.40;81.10;;;;;;4947866;28;20171;-67
2023/07/01 09:37:22;;;;;;;2.10;1.43;;;23.40;81.80;;;;;;4948123;28;20777;-67
2023/07/01 09:39:49;;;;;;;2.13;1.97;;;23.50;82.90;;;;;;4948932;28;20769;-67
2023/07/01 09:42:16;;;;;;;1.97;1.50;;;23.50;81.40;;;;;;4941183;28;20472;-68
2023/07/01 09:44:43;;;;;;;1.23;1.20;;;23.60;82.30;;;;;;4950315;28;20847;-67
2023/07/01 09:47:10;;;;;;;2.40;1.73;;;23.60;82.50;;;;;;4946721;28;20427;-68
2023/07/01 09:49:39;;;;;;;1.67;1.50;;;23.40;81.80;;;;;;4946122;28;20810;-69
2023/07/01 09:52:05;;;;;;;1.93;1.83;;;23.40;82.90;;;;;;4944713;28;20505;-67
2023/07/01 09:54:32;;;;;;;1.67;1.47;;;23.50;84.10;;;;;;4929271;29;20437;-68
2023/07/01 09:56:59;;;;;;;2.73;1.57;;;23.60;84.10;;;;;;4948783;29;20415;-68
2023/07/01 09:59:26;;;;;;;4.00;1.47;;;23.70;82.20;;;;;;4946948;29;20530;-67
2023/07/01 10:01:57;;;;;;;5.30;2.30;;;23.70;81.80;;;;;;4946809;28;20466;-67
2023/07/01 10:04:27;;;;;;;8.60;1.97;;;23.70;81.20;;;;;;4943146;28;20867;-68
2023/07/01 10:06:54;;;;;;;4.60;2.30;;;23.60;80.80;;;;;;4948178;28;20497;-70
2023/07/01 10:09:23;;;;;;;1.83;1.37;;;23.60;82.80;;;;;;4948671;28;20891;-69
2023/07/01 10:11:50;;;;;;;1.73;1.53;;;23.60;83.30;;;;;;4944854;28;20474;-68
2023/07/01 10:14:15;;;;;;;2.10;1.53;;;23.70;83.40;;;;;;4948626;28;20423;-69
2023/07/01 10:16:49;;;;;;;1.20;1.20;;;23.80;84.10;;;;;;4946227;29;20422;-68
2023/07/01 10:19:32;;;;;;;1.83;1.13;;;24.00;83.50;;;;;;4948023;29;20415;-70
2023/07/01 10:22:21;;;;;;;1.27;1.17;;;24.10;82.10;;;;;;4942026;29;20482;-67
2023/07/01 10:24:57;;;;;;;5.13;2.07;;;24.10;81.70;;;;;;4947385;28;20418;-69
2023/07/01 10:27:59;;;;;;;2.50;1.50;;;24.10;81.30;;;;;;4945465;28;20427;-69
2023/07/01 10:30:25;;;;;;;2.77;2.00;;;24.30;83.20;;;;;;4959842;28;20452;-67
2023/07/01 10:32:51;;;;;;;1.70;1.60;;;24.40;81.30;;;;;;4947088;28;20509;-69
2023/07/01 10:35:17;;;;;;;2.60;2.40;;;24.40;80.20;;;;;;4948234;28;20849;-68
2023/07/01 10:38:03;;;;;;;2.57;2.37;;;24.30;80.30;;;;;;4941828;28;20194;-69
2023/07/01 10:40:29;;;;;;;4.47;2.57;;;24.20;80.50;;;;;;4939769;28;20218;-68
2023/07/01 10:43:24;;;;;;;2.50;2.30;;;24.00;80.80;;;;;;4939263;28;20464;-67
2023/07/01 10:46:11;;;;;;;2.47;1.67;;;24.00;81.30;;;;;;4947063;29;20179;-68
2023/07/01 10:48:38;;;;;;;1.33;1.23;;;24.10;82.40;;;;;;4945063;29;20480;-70
2023/07/01 10:51:06;;;;;;;2.20;1.57;;;24.20;82.00;;;;;;4946489;28;20490;-74
2023/07/01 10:53:52;;;;;;;2.20;1.90;;;24.50;80.30;;;;;;4957543;28;20817;-67
2023/07/01 10:56:17;;;;;;;1.53;1.43;;;24.60;80.20;;;;;;4946728;28;20426;-66
2023/07/01 10:58:43;;;;;;;2.67;2.20;;;24.60;79.50;;;;;;4949153;29;20438;-69
2023/07/01 11:01:41;;;;;;;1.67;1.60;;;24.60;78.90;;;;;;4947839;28;20259;-67
2023/07/01 11:04:07;;;;;;;3.20;1.77;;;24.40;78.30;;;;;;4944489;29;20595;-75
2023/07/01 11:06:54;;;;;;;1.77;1.67;;;24.40;78.90;;;;;;4948698;28;20419;-68
2023/07/01 11:09:46;;;;;;;3.93;1.80;;;24.30;79.80;;;;;;4945386;28;20233;-68
2023/07/01 11:12:12;;;;;;;2.13;1.40;;;24.20;79.40;;;;;;4935705;28;20534;-67
2023/07/01 11:14:41;;;;;;;1.30;1.20;;;24.20;80.20;;;;;;4950465;28;20954;-68
2023/07/01 11:17:09;;;;;;;1.40;1.30;;;24.30;82.10;;;;;;4949963;29;20240;-68
2023/07/01 11:19:35;;;;;;;1.20;1.10;;;24.30;81.40;;;;;;4950055;28;20875;-67
2023/07/01 11:22:01;;;;;;;1.70;1.60;;;24.30;81.30;;;;;;4948120;28;20447;-65
2023/07/01 11:24:27;;;;;;;1.37;1.20;;;24.40;79.20;;;;;;4950606;28;20422;-68
2023/07/01 11:27:01;;;;;;;1.80;1.70;;;24.40;78.70;;;;;;4948908;28;20461;-69
2023/07/01 11:29:26;;;;;;;3.40;1.90;;;24.50;77.50;;;;;;4954038;28;20415;-68
2023/07/01 11:32:04;;;;;;;2.83;2.63;;;24.50;78.90;;;;;;4954241;28;21028;-68
2023/07/01 11:34:30;;;;;;;3.17;1.50;;;24.50;78.60;;;;;;4963963;28;20192;-68
2023/07/01 11:36:57;;;;;;;3.33;1.90;;;24.60;79.60;;;;;;4952540;28;20955;-67
2023/07/01 11:39:23;;;;;;;1.53;1.43;;;24.70;79.40;;;;;;4954066;28;20311;-68
2023/07/01 11:41:52;;;;;;;1.63;1.13;;;24.70;78.10;;;;;;4954133;28;20493;-69
2023/07/01 11:44:22;;;;;;;1.97;1.87;;;24.70;78.80;;;;;;4952748;29;20434;-66
2023/07/01 11:46:48;;;;;;;3.60;1.30;;;24.80;77.10;;;;;;4947194;29;20989;-72
2023/07/01 11:49:17;;;;;;;1.73;1.63;;;24.80;76.40;;;;;;4954094;28;20458;-68
2023/07/01 11:51:48;;;;;;;2.30;2.10;;;24.80;76.90;;;;;;4953400;28;20505;-66
2023/07/01 11:54:16;;;;;;;1.83;1.73;;;24.70;75.70;;;;;;4952662;28;20482;-68
2023/07/01 11:56:43;;;;;;;1.97;1.87;;;24.70;75.20;;;;;;4953869;28;20517;-68
2023/07/01 11:59:08;;;;;;;1.30;1.20;;;24.80;76.20;;;;;;4953827;28;20422;-68
2023/07/01 12:01:40;;;;;;;8.13;2.00;;;24.80;76.70;;;;;;4951352;28;20486;-74
2023/07/01 12:04:16;;;;;;;1.50;1.40;;;25.00;75.70;;;;;;4951652;28;20275;-67
2023/07/01 12:06:42;;;;;;;1.50;1.33;;;25.10;76.30;;;;;;4950702;29;20513;-72
2023/07/01 12:09:08;;;;;;;1.20;1.20;;;25.10;75.90;;;;;;4950426;28;20438;-69
2023/07/01 12:11:45;;;;;;;2.13;1.47;;;25.00;76.00;;;;;;4948031;28;20243;-69
2023/07/01 12:14:18;;;;;;;1.60;1.50;;;24.80;75.30;;;;;;4946826;28;20179;-67
2023/07/01 12:16:43;;;;;;;1.67;1.23;;;24.70;75.10;;;;;;4949462;28;20437;-67
2023/07/01 12:19:10;;;;;;;2.37;1.70;;;24.60;74.80;;;;;;4944074;28;20443;-69
2023/07/01 12:21:35;;;;;;;10.10;1.60;;;24.60;75.70;;;;;;4949710;28;20199;-67
2023/07/01 12:24:02;;;;;;;1.67;1.57;;;24.60;76.70;;;;;;4944105;28;20981;-67
2023/07/01 12:26:28;;;;;;;1.87;1.70;;;24.50;75.90;;;;;;4951401;28;20175;-68
2023/07/01 12:28:53;;;;;;;2.40;2.10;;;24.50;75.60;;;;;;4945267;28;20434;-68
2023/07/01 12:31:19;;;;;;;1.57;1.30;;;24.50;76.40;;;;;;4948738;28;20211;-67
2023/07/01 12:33:44;;;;;;;3.43;2.30;;;24.50;76.50;;;;;;4948911;29;20181;-69
2023/07/01 12:36:13;;;;;;;2.27;1.73;;;24.50;75.80;;;;;;4945949;28;20749;-71
2023/07/01 12:38:38;;;;;;;1.53;1.40;;;24.50;76.60;;;;;;4951622;28;20230;-69
2023/07/01 12:41:04;;;;;;;2.50;1.20;;;24.50;76.90;;;;;;4950129;28;20450;-67
2023/07/01 12:43:29;;;;;;;1.50;1.50;;;24.50;76.10;;;;;;4950601;28;20266;-68
2023/07/01 12:45:55;;;;;;;1.40;1.30;;;24.50;76.10;;;;;;4950212;28;20659;-68
2023/07/01 12:48:21;;;;;;;3.87;1.30;;;24.50;76.70;;;;;;4950706;28;20175;-69
2023/07/01 12:50:48;;;;;;;2.67;2.13;;;24.40;76.10;;;;;;4951232;28;20435;-68
2023/07/01 12:53:14;;;;;;;2.27;2.10;;;24.40;76.50;;;;;;4947981;28;20179;-69
2023/07/01 12:55:40;;;;;;;7.13;1.90;;;24.40;76.60;;;;;;4944439;28;20428;-68
2023/07/01 12:58:06;;;;;;;2.10;1.53;;;24.30;77.10;;;;;;4948415;28;20502;-68
2023/07/01 13:00:31;;;;;;;2.43;1.57;;;24.30;76.50;;;;;;4949154;28;20199;-68
2023/07/01 13:02:57;;;;;;;2.70;1.90;;;24.30;77.00;;;;;;4950310;28;20201;-68
2023/07/01 13:05:23;;;;;;;1.73;1.13;;;24.20;77.10;;;;;;4950184;28;20191;-67
2023/07/01 13:07:49;;;;;;;2.10;1.40;;;24.30;76.80;;;;;;4949605;28;20217;-67
2023/07/01 13:10:17;;;;;;;1.47;1.40;;;24.30;78.60;;;;;;4944023;28;20462;-67
2023/07/01 13:12:44;;;;;;;3.10;1.60;;;24.30;78.10;;;;;;4965405;28;20691;-67
2023/07/01 13:15:27;;;;;;;1.27;1.23;;;24.40;78.70;;;;;;4947131;28;20795;-67
2023/07/01 13:17:53;;;;;;;2.40;1.93;;;24.50;77.50;;;;;;4941206;28;20871;-68
2023/07/01 13:20:20;;;;;;;2.00;1.90;;;24.60;77.40;;;;;;4949301;28;20509;-67
2023/07/01 13:22:51;;;;;;;2.23;2.03;;;24.70;78.20;;;;;;4950265;29;20274;-67
2023/07/01 13:25:19;;;;;;;4.33;1.70;;;24.70;76.40;;;;;;4949580;28;20434;-67
2023/07/01 13:27:45;;;;;;;2.40;1.40;;;24.80;77.60;;;;;;4949717;28;20466;-67
2023/07/01 13:30:31;;;;;;;1.97;1.67;;;24.80;77.10;;;;;;4950226;28;20462;-68
2023/07/01 13:32:57;;;;;;;1.77;1.67;;;24.70;76.80;;;;;;4944007;29;20561;-67
2023/07/01 13:35:23;;;;;;;1.83;1.73;;;24.70;75.70;;;;;;4949429;28;20533;-68
2023/07/01 13:37:49;;;;;;;1.47;1.40;;;24.70;76.40;;;;;;4947487;29;20537;-68
2023/07/01 13:40:16;;;;;;;1.47;1.23;;;24.60;75.50;;;;;;4948808;28;20183;-69
2023/07/01 13:42:43;;;;;;;1.53;1.50;;;24.60;74.30;;;;;;4949417;29;20943;-69
2023/07/01 13:45:22;;;;;;;2.13;1.60;;;24.60;75.70;;;;;;4950858;28;20426;-69
2023/07/01 13:47:49;;;;;;;1.80;1.50;;;24.60;76.10;;;;;;4946376;28;20431;-69
2023/07/01 13:50:23;;;;;;;1.53;1.43;;;24.60;75.20;;;;;;4943953;28;20457;-68
2023/07/01 13:52:51;;;;;;;2.00;1.47;;;24.50;74.90;;;;;;4942252;28;20562;-68
2023/07/01 13:55:19;;;;;;;1.97;1.30;;;24.50;75.10;;;;;;4944472;28;20922;-68
2023/07/01 13:57:47;;;;;;;1.10;1.10;;;24.50;75.70;;;;;;4946208;28;20422;-68
2023/07/01 14:00:36;;;;;;;4.33;1.87;;;24.50;75.60;;;;;;4960177;28;20423;-67
2023/07/01 14:03:04;;;;;;;2.07;1.93;;;24.50;74.20;;;;;;4943882;29;20430;-70
2023/07/01 14:05:34;;;;;;;2.63;2.00;;;24.50;74.80;;;;;;4926651;29;20469;-69
2023/07/01 14:08:00;;;;;;;1.73;1.57;;;24.50;74.20;;;;;;4949388;28;20798;-69
2023/07/01 14:10:30;;;;;;;5.60;4.20;;;24.50;74.30;;;;;;4950669;28;20438;-69
2023/07/01 14:12:57;;;;;;;1.23;1.10;;;24.50;73.90;;;;;;4949593;29;20823;-70
2023/07/01 14:15:46;;;;;;;2.00;1.93;;;24.50;75.10;;;;;;4948444;28;20438;-69
2023/07/01 14:18:17;;;;;;;2.47;2.27;;;24.50;74.60;;;;;;4943750;28;20422;-68
2023/07/01 14:20:46;;;;;;;2.97;1.87;;;24.50;75.10;;;;;;4948988;28;20501;-69
2023/07/01 14:23:23;;;;;;;3.00;1.77;;;24.60;75.40;;;;;;4947178;28;20454;-69
2023/07/01 14:25:53;;;;;;;2.93;2.03;;;24.60;75.20;;;;;;4947582;28;20429;-67
2023/07/01 14:28:24;;;;;;;1.60;1.47;;;24.60;74.50;;;;;;4946931;28;20431;-68
2023/07/01 14:31:03;;;;;;;4.93;1.67;;;24.60;75.70;;;;;;4947023;28;21024;-68
2023/07/01 14:33:42;;;;;;;3.53;1.87;;;24.70;75.50;;;;;;4948216;29;20834;-68
2023/07/01 14:36:15;;;;;;;1.60;1.50;;;24.70;75.60;;;;;;4947468;28;20531;-69
2023/07/01 14:38:45;;;;;;;4.13;1.33;;;24.70;74.60;;;;;;4926146;29;20423;-67
2023/07/01 14:41:18;;;;;;;4.20;2.00;;;24.70;74.40;;;;;;4940531;28;20799;-68
2023/07/01 14:43:44;;;;;;;3.07;2.13;;;24.70;75.20;;;;;;4944158;28;20561;-68
2023/07/01 14:46:10;;;;;;;1.57;1.47;;;24.70;75.10;;;;;;4941580;28;20518;-68
2023/07/01 14:48:35;;;;;;;3.00;2.00;;;24.80;75.10;;;;;;4946228;29;20199;-68
2023/07/01 14:51:01;;;;;;;1.50;1.40;;;24.80;75.90;;;;;;4946345;28;20410;-67
2023/07/01 14:53:26;;;;;;;4.00;1.57;;;24.80;75.20;;;;;;4942250;28;20187;-68
2023/07/01 14:55:52;;;;;;;1.93;1.80;;;24.80;74.80;;;;;;4952597;29;20559;-70
2023/07/01 14:58:17;;;;;;;2.40;2.10;;;24.80;75.40;;;;;;4952419;29;20179;-67
2023/07/01 15:00:43;;;;;;;2.97;2.20;;;24.70;75.10;;;;;;4951273;28;20191;-67
2023/07/01 15:03:08;;;;;;;20.73;2.97;;;24.70;75.20;;;;;;4948074;28;20270;-69
2023/07/01 15:05:38;;;;;;;2.00;1.67;;;24.70;75.60;;;;;;4948425;29;20237;-68
2023/07/01 15:08:03;;;;;;;4.50;1.60;;;24.60;76.00;;;;;;4949099;29;20190;-67
2023/07/01 15:10:30;;;;;;;2.77;1.70;;;24.60;76.00;;;;;;4948175;28;20454;-70
2023/07/01 15:12:56;;;;;;;2.60;2.17;;;24.60;74.90;;;;;;4946218;29;20218;-67
2023/07/01 15:15:22;;;;;;;3.60;1.77;;;24.60;75.30;;;;;;4950920;29;20513;-67
2023/07/01 15:17:47;;;;;;;21.47;2.33;;;24.50;75.60;;;;;;4949314;29;20514;-68
2023/07/01 15:20:13;;;;;;;1.27;1.20;;;24.50;75.10;;;;;;4949420;28;20608;-67
2023/07/01 15:22:39;;;;;;;1.67;1.43;;;24.50;75.60;;;;;;4951697;28;20183;-68
2023/07/01 15:25:04;;;;;;;1.30;1.23;;;24.40;75.50;;;;;;4947644;28;20709;-67
2023/07/01 15:27:30;;;;;;;2.20;1.93;;;24.40;75.60;;;;;;4949998;29;20186;-67
2023/07/01 15:29:55;;;;;;;1.67;1.40;;;24.40;75.80;;;;;;4952312;28;20664;-68
2023/07/01 15:32:21;;;;;;;1.17;1.07;;;24.40;76.20;;;;;;4952318;28;20217;-67
2023/07/01 15:34:46;;;;;;;3.83;1.30;;;24.30;76.30;;;;;;4949789;28;20667;-67
2023/07/01 15:37:12;;;;;;;1.77;1.37;;;24.30;76.40;;;;;;4950087;29;20187;-67
2023/07/01 15:39:37;;;;;;;1.30;1.20;;;24.30;77.30;;;;;;4951068;28;20176;-66
2023/07/01 15:42:03;;;;;;;4.93;2.40;;;24.30;76.90;;;;;;4952142;28;20211;-67
2023/07/01 15:44:28;;;;;;;3.07;1.80;;;24.20;77.80;;;;;;4948297;28;20183;-69
2023/07/01 15:46:54;;;;;;;4.17;1.47;;;24.10;77.50;;;;;;4947641;28;20211;-66
2023/07/01 15:49:20;;;;;;;1.33;1.23;;;24.10;77.90;;;;;;4948660;28;20660;-67
2023/07/01 15:51:45;;;;;;;1.17;1.10;;;24.00;78.00;;;;;;4950201;28;20215;-67
2023/07/01 15:54:12;;;;;;;4.83;2.03;;;24.00;78.20;;;;;;4946725;28;21243;-66
2023/07/01 15:56:38;;;;;;;1.93;1.40;;;24.00;78.40;;;;;;4949073;29;20659;-67
2023/07/01 15:59:04;;;;;;;1.10;1.00;;;24.00;78.30;;;;;;4946916;28;20423;-67
2023/07/01 16:01:30;;;;;;;2.83;1.77;;;24.00;78.50;;;;;;4943362;28;20242;-67
2023/07/01 16:03:56;;;;;;;2.27;1.77;;;23.90;78.70;;;;;;4941926;29;20525;-66
2023/07/01 16:06:22;;;;;;;1.90;1.90;;;23.90;78.30;;;;;;4950902;29;20423;-68
2023/07/01 16:08:51;;;;;;;6.03;2.40;;;23.90;78.70;;;;;;4934003;29;20437;-67
2023/07/01 16:11:31;;;;;;;10.23;3.73;;;23.90;78.90;;;;;;4946730;28;20502;-67
2023/07/01 16:13:59;;;;;;;3.70;3.40;;;23.80;79.60;;;;;;4949275;29;20434;-67
2023/07/01 16:16:25;;;;;;;3.63;2.70;;;23.80;79.90;;;;;;4948873;29;20431;-67
2023/07/01 16:18:51;;;;;;;3.90;3.17;;;23.80;80.30;;;;;;4948252;29;20430;-67
2023/07/01 16:21:25;;;;;;;1.90;1.80;;;23.70;80.30;;;;;;4973378;23;20330;-89
2023/07/01 16:23:58;;;;;;;1.37;1.37;;;23.70;80.60;;;;;;4973214;28;20426;-88
2023/07/01 16:26:33;;;;;;;1.40;1.30;;;23.60;81.20;;;;;;4967941;28;20846;-90
2023/07/01 16:28:59;;;;;;;1.40;1.30;;;23.50;81.90;;;;;;4969910;28;20998;-90
2023/07/01 16:31:27;;;;;;;1.17;1.10;;;23.40;82.10;;;;;;4968035;28;20478;-89
2023/07/01 16:33:54;;;;;;;1.83;1.80;;;23.40;82.70;;;;;;4972667;23;20324;-72
2023/07/01 16:36:24;;;;;;;1.47;1.37;;;23.30;83.20;;;;;;4969081;28;20438;-73
2023/07/01 16:38:50;;;;;;;1.50;1.40;;;23.30;83.40;;;;;;4984254;28;20456;-72
2023/07/01 16:41:17;;;;;;;2.27;2.13;;;23.30;83.30;;;;;;4960412;28;20454;-68
2023/07/01 16:43:46;;;;;;;1.33;1.23;;;23.20;84.20;;;;;;4948001;28;20430;-74
2023/07/01 16:46:13;;;;;;;1.80;1.70;;;23.10;84.80;;;;;;4947821;28;20450;-70
2023/07/01 16:48:43;;;;;;;2.80;2.47;;;23.00;85.00;;;;;;4948501;28;20445;-70
2023/07/01 16:51:09;;;;;;;7.10;2.80;;;23.00;85.10;;;;;;4948309;28;20490;-68
2023/07/01 16:53:37;;;;;;;4.53;3.57;;;22.90;85.50;;;;;;4950118;28;20426;-69
2023/07/01 16:56:09;;;;;;;1.93;1.70;;;22.80;85.90;;;;;;4946656;28;20473;-72
2023/07/01 16:58:36;;;;;;;8.13;6.77;;;22.80;85.70;;;;;;4948206;28;20429;-76
2023/07/01 17:01:07;;;;;;;6.20;3.00;;;22.70;86.10;;;;;;4944320;28;20466;-75
2023/07/01 17:03:36;;;;;;;1.93;1.50;;;22.70;86.00;;;;;;4944248;29;20743;-72
2023/07/01 17:06:05;;;;;;;2.70;2.10;;;22.70;86.10;;;;;;4939426;29;20506;-73
2023/07/01 17:08:31;;;;;;;2.90;1.73;;;22.70;85.90;;;;;;4947746;28;20415;-72
2023/07/01 17:10:58;;;;;;;2.50;1.90;;;;;;;;;;4947531;28;20461;-74
2023/07/01 17:13:28;;;;;;;4.70;2.23;;;22.70;86.20;;;;;;4949828;29;20674;-74
2023/07/01 17:15:55;;;;;;;1.30;1.20;;;22.60;86.00;;;;;;4950547;29;20999;-70
2023/07/01 17:18:25;;;;;;;1.47;1.37;;;22.60;85.80;;;;;;4948785;28;20435;-70
2023/07/01 17:20:55;;;;;;;4.53;1.70;;;22.60;85.80;;;;;;4948542;28;20446;-67